Kasugai, Japan
Current Conditions -  °F | °C
As of 5:30 PM on Saturday 20 Dec 2014 (Local Time) from RJGG Reporting Station
Rain Showers Rain Showers  
Wind Chill: 39°   Ceiling: 500
Heat Index: 46°   Visibility: 2.8mi
Dew Point: 45°   Wind: 17mph
Humidity: 93%   Direction: 320°NW
Pressure: 29.74"   Gusts: NA
Location:  35.24°N, 136.98°E
Report Text: RJGG 200830Z 32015KT 4500 -SHRA BR FEW002 SCT004 BKN005 08/07 Q1007 BECMG 6000 NSW FEW003 SCT005 BKN015
Loading
Personal Weather Stations






























Interactive Weather Map New forecast layout! Learn more

10-Day Weather Forecast

Advertisements
Track Severe Weather on mobile